sensor_id;sensor_type;location;lat;lon;timestamp;pressure;altitude;pressure_sealevel;temperature;humidity
57038;BME280;59942;49.304;8.256;2024-01-30T00:02:17;101767.84;;;2.40;100.00
57038;BME280;59942;49.304;8.256;2024-01-30T00:04:43;101767.00;;;2.40;100.00
57038;BME280;59942;49.304;8.256;2024-01-30T00:07:10;101760.88;;;2.30;100.00
57038;BME280;59942;49.304;8.256;2024-01-30T00:09:38;101764.31;;;2.32;100.00
57038;BME280;59942;49.304;8.256;2024-01-30T00:12:06;101766.84;;;2.31;100.00
57038;BME280;59942;49.304;8.256;2024-01-30T00:14:35;101760.97;;;2.38;100.00
57038;BME280;59942;49.304;8.256;2024-01-30T00:17:01;101767.88;;;2.45;100.00
57038;BME280;59942;49.304;8.256;2024-01-30T00:19:30;101774.72;;;2.45;100.00
57038;BME280;59942;49.304;8.256;2024-01-30T00:21:59;101778.19;;;2.50;100.00
57038;BME280;59942;49.304;8.256;2024-01-30T00:24:28;101777.38;;;2.52;100.00
57038;BME280;59942;49.304;8.256;2024-01-30T00:26:54;101779.09;;;2.52;100.00
57038;BME280;59942;49.304;8.256;2024-01-30T00:29:20;101779.91;;;2.51;99.67
57038;BME280;59942;49.304;8.256;2024-01-30T00:31:49;101774.78;;;2.51;100.00
57038;BME280;59942;49.304;8.256;2024-01-30T00:34:16;101779.09;;;2.52;99.34
57038;BME280;59942;49.304;8.256;2024-01-30T00:36:45;101781.66;;;2.52;98.81
57038;BME280;59942;49.304;8.256;2024-01-30T00:39:12;101780.88;;;2.57;100.00
57038;BME280;59942;49.304;8.256;2024-01-30T00:41:44;101781.69;;;2.55;100.00
57038;BME280;59942;49.304;8.256;2024-01-30T00:44:10;101780.75;;;2.50;100.00
57038;BME280;59942;49.304;8.256;2024-01-30T00:46:37;101778.16;;;2.47;99.24
57038;BME280;59942;49.304;8.256;2024-01-30T00:49:03;101783.16;;;2.37;100.00
57038;BME280;59942;49.304;8.256;2024-01-30T00:51:30;101781.50;;;2.42;100.00
57038;BME280;59942;49.304;8.256;2024-01-30T00:53:57;101784.06;;;2.42;100.00
57038;BME280;59942;49.304;8.256;2024-01-30T00:56:25;101780.59;;;2.37;99.88
57038;BME280;59942;49.304;8.256;2024-01-30T00:58:55;101781.41;;;2.35;99.36
57038;BME280;59942;49.304;8.256;2024-01-30T01:01:24;101782.25;;;2.35;99.21
57038;BME280;59942;49.304;8.256;2024-01-30T01:03:51;101775.47;;;2.37;100.00
57038;BME280;59942;49.304;8.256;2024-01-30T01:06:22;101778.72;;;2.24;100.00
57038;BME280;59942;49.304;8.256;2024-01-30T01:08:51;101778.72;;;2.24;100.00
57038;BME280;59942;49.304;8.256;2024-01-30T01:11:21;101781.19;;;2.21;100.00
57038;BME280;59942;49.304;8.256;2024-01-30T01:13:50;101782.06;;;2.20;100.00
57038;BME280;59942;49.304;8.256;2024-01-30T01:16:17;101774.44;;;2.24;100.00
57038;BME280;59942;49.304;8.256;2024-01-30T01:18:46;101764.91;;;2.14;100.00
57038;BME280;59942;49.304;8.256;2024-01-30T01:21:12;101771.69;;;2.12;100.00
57038;BME280;59942;49.304;8.256;2024-01-30T01:23:41;101776.91;;;2.18;100.00
57038;BME280;59942;49.304;8.256;2024-01-30T01:26:08;101766.50;;;2.06;100.00
57038;BME280;59942;49.304;8.256;2024-01-30T01:28:36;101768.31;;;2.13;100.00
57038;BME280;59942;49.304;8.256;2024-01-30T01:31:02;101774.19;;;2.07;100.00
57038;BME280;59942;49.304;8.256;2024-01-30T01:33:33;101769.09;;;2.09;100.00
57038;BME280;59942;49.304;8.256;2024-01-30T01:36:06;101758.75;;;2.01;100.00
57038;BME280;59942;49.304;8.256;2024-01-30T01:38:33;101758.00;;;2.07;100.00
57038;BME280;59942;49.304;8.256;2024-01-30T01:40:59;101764.91;;;2.13;100.00
57038;BME280;59942;49.304;8.256;2024-01-30T01:43:26;101763.91;;;2.04;100.00
57038;BME280;59942;49.304;8.256;2024-01-30T01:45:55;101763.75;;;1.94;100.00
57038;BME280;59942;49.304;8.256;2024-01-30T01:48:21;101766.38;;;1.98;100.00
57038;BME280;59942;49.304;8.256;2024-01-30T01:50:48;101772.31;;;1.96;100.00
57038;BME280;59942;49.304;8.256;2024-01-30T01:53:15;101768.03;;;1.95;100.00
57038;BME280;59942;49.304;8.256;2024-01-30T01:55:43;101761.03;;;1.83;100.00
57038;BME280;59942;49.304;8.256;2024-01-30T01:58:09;101763.69;;;1.90;100.00
57038;BME280;59942;49.304;8.256;2024-01-30T02:00:39;101768.75;;;1.86;100.00
57038;BME280;59942;49.304;8.256;2024-01-30T02:03:10;101761.03;;;1.83;100.00
57038;BME280;59942;49.304;8.256;2024-01-30T02:05:40;101755.88;;;1.81;100.00
57038;BME280;59942;49.304;8.256;2024-01-30T02:08:10;101763.59;;;1.84;100.00
57038;BME280;59942;49.304;8.256;2024-01-30T02:10:37;101765.41;;;1.90;100.00
57038;BME280;59942;49.304;8.256;2024-01-30T02:13:06;101773.94;;;1.92;100.00
57038;BME280;59942;49.304;8.256;2024-01-30T02:15:33;101767.91;;;1.85;100.00
57038;BME280;59942;49.304;8.256;2024-01-30T02:17:59;101769.72;;;1.94;100.00
57038;BME280;59942;49.304;8.256;2024-01-30T02:20:31;101759.22;;;1.77;100.00
57038;BME280;59942;49.304;8.256;2024-01-30T02:23:02;101756.59;;;1.72;100.00
57038;BME280;59942;49.304;8.256;2024-01-30T02:25:31;101761.66;;;1.68;100.00
57038;BME280;59942;49.304;8.256;2024-01-30T02:27:58;101764.88;;;1.56;100.00
57038;BME280;59942;49.304;8.256;2024-01-30T02:30:29;101759.09;;;1.68;100.00
57038;BME280;59942;49.304;8.256;2024-01-30T02:32:56;101753.72;;;1.52;100.00
57038;BME280;59942;49.304;8.256;2024-01-30T02:35:22;101756.25;;;1.51;100.00
57038;BME280;59942;49.304;8.256;2024-01-30T02:37:49;101751.19;;;1.54;100.00
57038;BME280;59942;49.304;8.256;2024-01-30T02:40:15;101759.81;;;1.59;100.00
57038;BME280;59942;49.304;8.256;2024-01-30T02:42:42;101757.84;;;1.46;100.00
57038;BME280;59942;49.304;8.256;2024-01-30T02:45:09;101758.84;;;1.54;100.00
57038;BME280;59942;49.304;8.256;2024-01-30T02:47:38;101752.22;;;1.65;100.00
57038;BME280;59942;49.304;8.256;2024-01-30T02:50:05;101758.16;;;1.63;100.00
57038;BME280;59942;49.304;8.256;2024-01-30T02:52:35;101761.34;;;1.49;100.00
57038;BME280;59942;49.304;8.256;2024-01-30T02:55:02;101758.00;;;1.53;100.00
57038;BME280;59942;49.304;8.256;2024-01-30T02:57:31;101757.13;;;1.53;100.00
57038;BME280;59942;49.304;8.256;2024-01-30T02:59:57;101759.69;;;1.53;100.00
57038;BME280;59942;49.304;8.256;2024-01-30T03:02:26;101750.16;;;1.44;100.00
57038;BME280;59942;49.304;8.256;2024-01-30T03:04:53;101753.84;;;1.62;100.00
57038;BME280;59942;49.304;8.256;2024-01-30T03:07:20;101750.44;;;1.61;100.00
57038;BME280;59942;49.304;8.256;2024-01-30T03:09:49;101756.34;;;1.57;100.00
57038;BME280;59942;49.304;8.256;2024-01-30T03:12:15;101758.81;;;1.52;100.00
57038;BME280;59942;49.304;8.256;2024-01-30T03:14:42;101754.47;;;1.47;100.00
57038;BME280;59942;49.304;8.256;2024-01-30T03:17:08;101760.59;;;1.55;100.00
57038;BME280;59942;49.304;8.256;2024-01-30T03:19:35;101761.34;;;1.51;100.00
57038;BME280;59942;49.304;8.256;2024-01-30T03:22:02;101766.38;;;1.45;100.00
57038;BME280;59942;49.304;8.256;2024-01-30T03:24:28;101757.97;;;1.50;100.00
57038;BME280;59942;49.304;8.256;2024-01-30T03:26:55;101759.78;;;1.58;100.00
57038;BME280;59942;49.304;8.256;2024-01-30T03:29:21;101754.72;;;1.61;100.00
57038;BME280;59942;49.304;8.256;2024-01-30T03:31:48;101746.81;;;1.47;100.00
57038;BME280;59942;49.304;8.256;2024-01-30T03:34:15;101747.59;;;1.44;100.00
57038;BME280;59942;49.304;8.256;2024-01-30T03:36:41;101748.44;;;1.42;100.00
57038;BME280;59942;49.304;8.256;2024-01-30T03:39:10;101756.16;;;1.45;100.00
57038;BME280;59942;49.304;8.256;2024-01-30T03:41:37;101751.88;;;1.45;100.00
57038;BME280;59942;49.304;8.256;2024-01-30T03:44:03;101756.19;;;1.48;100.00
57038;BME280;59942;49.304;8.256;2024-01-30T03:46:30;101746.72;;;1.42;100.00
57038;BME280;59942;49.304;8.256;2024-01-30T03:48:59;101751.00;;;1.42;100.00
57038;BME280;59942;49.304;8.256;2024-01-30T03:51:28;101751.59;;;1.28;100.00
57038;BME280;59942;49.304;8.256;2024-01-30T03:53:54;101751.59;;;1.28;100.00
57038;BME280;59942;49.304;8.256;2024-01-30T03:56:21;101762.00;;;1.39;100.00
57038;BME280;59942;49.304;8.256;2024-01-30T03:58:47;101747.25;;;1.24;100.00
57038;BME280;59942;49.304;8.256;2024-01-30T04:01:14;101752.16;;;1.12;100.00
57038;BME280;59942;49.304;8.256;2024-01-30T04:03:42;101752.22;;;1.15;100.00
57038;BME280;59942;49.304;8.256;2024-01-30T04:06:10;101755.59;;;1.14;100.00
57038;BME280;59942;49.304;8.256;2024-01-30T04:08:39;101747.91;;;1.14;100.00
57038;BME280;59942;49.304;8.256;2024-01-30T04:11:06;101752.44;;;1.27;100.00
57038;BME280;59942;49.304;8.256;2024-01-30T04:13:33;101757.31;;;1.15;100.00
57038;BME280;59942;49.304;8.256;2024-01-30T04:16:02;101756.72;;;1.30;100.00
57038;BME280;59942;49.304;8.256;2024-01-30T04:18:31;101750.47;;;1.14;100.00
57038;BME280;59942;49.304;8.256;2024-01-30T04:21:03;101763.50;;;1.26;100.00
57038;BME280;59942;49.304;8.256;2024-01-30T04:23:30;101761.72;;;1.24;100.00
57038;BME280;59942;49.304;8.256;2024-01-30T04:25:56;101754.91;;;1.24;100.00
57038;BME280;59942;49.304;8.256;2024-01-30T04:28:25;101748.88;;;1.19;100.00
57038;BME280;59942;49.304;8.256;2024-01-30T04:30:52;101746.28;;;1.16;100.00
57038;BME280;59942;49.304;8.256;2024-01-30T04:33:18;101751.38;;;1.16;100.00
57038;BME280;59942;49.304;8.256;2024-01-30T04:35:45;101751.38;;;1.16;100.00
57038;BME280;59942;49.304;8.256;2024-01-30T04:38:11;101756.31;;;1.07;100.00
57038;BME280;59942;49.304;8.256;2024-01-30T04:40:40;101760.66;;;1.11;100.00
57038;BME280;59942;49.304;8.256;2024-01-30T04:43:07;101756.47;;;1.14;100.00
57038;BME280;59942;49.304;8.256;2024-01-30T04:45:36;101755.63;;;1.17;100.00
57038;BME280;59942;49.304;8.256;2024-01-30T04:48:03;101752.31;;;1.21;100.00
57038;BME280;59942;49.304;8.256;2024-01-30T04:50:31;101760.59;;;1.08;100.00
57038;BME280;59942;49.304;8.256;2024-01-30T04:53:00;101759.84;;;1.13;100.00
57038;BME280;59942;49.304;8.256;2024-01-30T04:55:29;101756.19;;;1.00;100.00
57038;BME280;59942;49.304;8.256;2024-01-30T04:57:55;101761.22;;;0.96;100.00
57038;BME280;59942;49.304;8.256;2024-01-30T05:00:22;101762.91;;;0.95;100.00
57038;BME280;59942;49.304;8.256;2024-01-30T05:02:48;101771.38;;;0.93;100.00
57038;BME280;59942;49.304;8.256;2024-01-30T05:05:17;101753.44;;;0.90;100.00
57038;BME280;59942;49.304;8.256;2024-01-30T05:07:44;101759.59;;;1.01;100.00
57038;BME280;59942;49.304;8.256;2024-01-30T05:10:10;101761.31;;;1.00;100.00
57038;BME280;59942;49.304;8.256;2024-01-30T05:12:38;101753.44;;;0.90;100.00
57038;BME280;59942;49.304;8.256;2024-01-30T05:15:07;101758.59;;;0.91;100.00
57038;BME280;59942;49.304;8.256;2024-01-30T05:17:34;101763.97;;;1.07;100.00
57038;BME280;59942;49.304;8.256;2024-01-30T05:20:03;101760.66;;;1.11;100.00
57038;BME280;59942;49.304;8.256;2024-01-30T05:22:31;101771.06;;;1.21;100.00
57038;BME280;59942;49.304;8.256;2024-01-30T05:24:57;101764.97;;;1.15;100.00
57038;BME280;59942;49.304;8.256;2024-01-30T05:27:24;101777.56;;;1.04;100.00
57038;BME280;59942;49.304;8.256;2024-01-30T05:29:50;101772.47;;;1.06;100.00
57038;BME280;59942;49.304;8.256;2024-01-30T05:32:17;101775.78;;;1.00;100.00
57038;BME280;59942;49.304;8.256;2024-01-30T05:34:43;101774.06;;;1.00;100.00
57038;BME280;59942;49.304;8.256;2024-01-30T05:37:14;101780.66;;;0.89;100.00
57038;BME280;59942;49.304;8.256;2024-01-30T05:39:45;101777.16;;;0.82;100.00
57038;BME280;59942;49.304;8.256;2024-01-30T05:42:12;101779.31;;;0.64;100.00
57038;BME280;59942;49.304;8.256;2024-01-30T05:44:43;101779.94;;;0.54;100.00
57038;BME280;59942;49.304;8.256;2024-01-30T05:47:10;101777.59;;;0.64;100.00
57038;BME280;59942;49.304;8.256;2024-01-30T05:49:36;101786.94;;;0.62;100.00
57038;BME280;59942;49.304;8.256;2024-01-30T05:52:05;101783.88;;;0.80;100.00
57038;BME280;59942;49.304;8.256;2024-01-30T05:54:32;101777.44;;;0.99;100.00
57038;BME280;59942;49.304;8.256;2024-01-30T05:56:58;101776.50;;;0.93;100.00
57038;BME280;59942;49.304;8.256;2024-01-30T05:59:27;101790.22;;;0.99;100.00
57038;BME280;59942;49.304;8.256;2024-01-30T06:01:56;101793.78;;;1.08;100.00
57038;BME280;59942;49.304;8.256;2024-01-30T06:04:23;101787.88;;;1.09;100.00
57038;BME280;59942;49.304;8.256;2024-01-30T06:06:52;101787.59;;;0.95;100.00
57038;BME280;59942;49.304;8.256;2024-01-30T06:09:21;101788.41;;;0.94;100.00
57038;BME280;59942;49.304;8.256;2024-01-30T06:11:48;101785.06;;;0.96;100.00
57038;BME280;59942;49.304;8.256;2024-01-30T06:14:14;101781.03;;;1.08;100.00
57038;BME280;59942;49.304;8.256;2024-01-30T06:16:43;101785.13;;;1.01;100.00
57038;BME280;59942;49.304;8.256;2024-01-30T06:19:10;101786.84;;;1.00;100.00
57038;BME280;59942;49.304;8.256;2024-01-30T06:21:36;101777.50;;;1.02;100.00
57038;BME280;59942;49.304;8.256;2024-01-30T06:24:07;101783.66;;;1.12;100.00
57038;BME280;59942;49.304;8.256;2024-01-30T06:26:34;101778.56;;;1.12;100.00
57038;BME280;59942;49.304;8.256;2024-01-30T06:29:00;101774.31;;;1.13;100.00
57038;BME280;59942;49.304;8.256;2024-01-30T06:31:34;101778.56;;;1.14;100.00
57038;BME280;59942;49.304;8.256;2024-01-30T06:34:05;101772.59;;;1.12;100.00
57038;BME280;59942;49.304;8.256;2024-01-30T06:36:32;101770.91;;;1.14;100.00
57038;BME280;59942;49.304;8.256;2024-01-30T06:38:58;101772.66;;;1.16;100.00
57038;BME280;59942;49.304;8.256;2024-01-30T06:41:25;101774.47;;;1.22;100.00
57038;BME280;59942;49.304;8.256;2024-01-30T06:43:53;101771.94;;;1.22;100.00
57038;BME280;59942;49.304;8.256;2024-01-30T06:46:20;101772.97;;;1.32;100.00
57038;BME280;59942;49.304;8.256;2024-01-30T06:48:47;101779.69;;;1.28;100.00
57038;BME280;59942;49.304;8.256;2024-01-30T06:51:16;101778.78;;;1.25;100.00
57038;BME280;59942;49.304;8.256;2024-01-30T06:53:43;101778.81;;;1.26;100.00
57038;BME280;59942;49.304;8.256;2024-01-30T06:56:10;101776.81;;;1.11;100.00
57038;BME280;59942;49.304;8.256;2024-01-30T06:58:37;101788.06;;;1.19;100.00
57038;BME280;59942;49.304;8.256;2024-01-30T07:01:03;101786.72;;;0.94;100.00
57038;BME280;59942;49.304;8.256;2024-01-30T07:03:30;101786.03;;;1.01;100.00
57038;BME280;59942;49.304;8.256;2024-01-30T07:05:59;101780.94;;;1.03;100.00
57038;BME280;59942;49.304;8.256;2024-01-30T07:08:26;101784.34;;;1.03;100.00
57038;BME280;59942;49.304;8.256;2024-01-30T07:10:54;101783.56;;;1.06;100.00
57038;BME280;59942;49.304;8.256;2024-01-30T07:13:28;101783.50;;;1.03;100.00
57038;BME280;59942;49.304;8.256;2024-01-30T07:15:57;101781.78;;;1.03;100.00
57038;BME280;59942;49.304;8.256;2024-01-30T07:18:24;101787.97;;;1.15;100.00
57038;BME280;59942;49.304;8.256;2024-01-30T07:20:53;101780.31;;;1.15;100.00
57038;BME280;59942;49.304;8.256;2024-01-30T07:23:19;101784.78;;;1.27;100.00
57038;BME280;59942;49.304;8.256;2024-01-30T07:25:46;101782.13;;;1.20;100.00
57038;BME280;59942;49.304;8.256;2024-01-30T07:28:17;101788.06;;;1.21;100.00
57038;BME280;59942;49.304;8.256;2024-01-30T07:30:46;101788.03;;;1.18;100.00
57038;BME280;59942;49.304;8.256;2024-01-30T07:33:16;101790.59;;;1.18;100.00
57038;BME280;59942;49.304;8.256;2024-01-30T07:35:45;101779.53;;;1.19;100.00
57038;BME280;59942;49.304;8.256;2024-01-30T07:38:12;101788.09;;;1.23;100.00
57038;BME280;59942;49.304;8.256;2024-01-30T07:40:40;101778.66;;;1.18;100.00
57038;BME280;59942;49.304;8.256;2024-01-30T07:43:07;101786.59;;;1.32;100.00
57038;BME280;59942;49.304;8.256;2024-01-30T07:45:34;101790.94;;;1.38;100.00
57038;BME280;59942;49.304;8.256;2024-01-30T07:48:01;101792.69;;;1.39;100.00
57038;BME280;59942;49.304;8.256;2024-01-30T07:50:29;101795.25;;;1.41;100.00
57038;BME280;59942;49.304;8.256;2024-01-30T07:53:00;101797.91;;;1.47;100.00
57038;BME280;59942;49.304;8.256;2024-01-30T07:55:26;101799.56;;;1.43;100.00
57038;BME280;59942;49.304;8.256;2024-01-30T07:57:58;101808.56;;;1.71;100.00
57038;BME280;59942;49.304;8.256;2024-01-30T08:00:28;101802.47;;;1.63;100.00
57038;BME280;59942;49.304;8.256;2024-01-30T08:02:55;101812.53;;;1.54;100.00
57038;BME280;59942;49.304;8.256;2024-01-30T08:05:22;101805.63;;;1.48;100.00
57038;BME280;59942;49.304;8.256;2024-01-30T08:07:52;101815.47;;;1.76;100.00
57038;BME280;59942;49.304;8.256;2024-01-30T08:10:18;101769.16;;;1.60;100.00
57038;BME280;59942;49.304;8.256;2024-01-30T08:12:50;101815.66;;;1.86;100.00
57038;BME280;59942;49.304;8.256;2024-01-30T08:15:17;101817.59;;;2.01;100.00
57038;BME280;59942;49.304;8.256;2024-01-30T08:17:45;101813.25;;;1.97;100.00
57038;BME280;59942;49.304;8.256;2024-01-30T08:20:12;101810.91;;;2.10;100.00
57038;BME280;59942;49.304;8.256;2024-01-30T08:22:40;101804.38;;;2.29;100.00
57038;BME280;59942;49.304;8.256;2024-01-30T08:25:09;101811.34;;;2.40;100.00
57038;BME280;59942;49.304;8.256;2024-01-30T08:27:38;101804.34;;;2.27;100.00
57038;BME280;59942;49.304;8.256;2024-01-30T08:30:06;101820.53;;;2.26;100.00
57038;BME280;59942;49.304;8.256;2024-01-30T08:32:35;101810.34;;;2.29;100.00
57038;BME280;59942;49.304;8.256;2024-01-30T08:35:02;101814.91;;;2.49;100.00
57038;BME280;59942;49.304;8.256;2024-01-30T08:37:30;101815.00;;;2.58;100.00
57038;BME280;59942;49.304;8.256;2024-01-30T08:39:59;101806.72;;;2.15;100.00
57038;BME280;59942;49.304;8.256;2024-01-30T08:42:26;101817.78;;;2.15;100.00
57038;BME280;59942;49.304;8.256;2024-01-30T08:44:57;101823.63;;;2.06;100.00
57038;BME280;59942;49.304;8.256;2024-01-30T08:47:26;101820.31;;;2.14;100.00
57038;BME280;59942;49.304;8.256;2024-01-30T08:49:53;101813.97;;;2.45;100.00
57038;BME280;59942;49.304;8.256;2024-01-30T08:52:24;101824.97;;;2.38;100.00
57038;BME280;59942;49.304;8.256;2024-01-30T08:54:53;101819.34;;;2.64;100.00
57038;BME280;59942;49.304;8.256;2024-01-30T08:57:22;101824.00;;;2.92;100.00
57038;BME280;59942;49.304;8.256;2024-01-30T08:59:51;101818.84;;;2.91;100.00
57038;BME280;59942;49.304;8.256;2024-01-30T09:02:18;101816.31;;;2.94;100.00
57038;BME280;59942;49.304;8.256;2024-01-30T09:04:44;101818.94;;;2.99;100.00
57038;BME280;59942;49.304;8.256;2024-01-30T09:07:13;101822.16;;;2.82;100.00
57038;BME280;59942;49.304;8.256;2024-01-30T09:09:41;101829.28;;;3.05;100.00
57038;BME280;59942;49.304;8.256;2024-01-30T09:12:08;101828.81;;;3.40;100.00
57038;BME280;59942;49.304;8.256;2024-01-30T09:14:39;101835.44;;;3.21;100.00
57038;BME280;59942;49.304;8.256;2024-01-30T09:17:07;101808.03;;;3.15;100.00
57038;BME280;59942;49.304;8.256;2024-01-30T09:19:36;101826.09;;;3.27;100.00
57038;BME280;59942;49.304;8.256;2024-01-30T09:22:03;101821.88;;;3.31;100.00
57038;BME280;59942;49.304;8.256;2024-01-30T09:24:31;101814.00;;;3.14;100.00
57038;BME280;59942;49.304;8.256;2024-01-30T09:26:58;101830.44;;;3.35;100.00
57038;BME280;59942;49.304;8.256;2024-01-30T09:29:29;101828.78;;;3.38;100.00
57038;BME280;59942;49.304;8.256;2024-01-30T09:31:56;101828.84;;;3.43;100.00
57038;BME280;59942;49.304;8.256;2024-01-30T09:34:25;101834.13;;;3.58;100.00
57038;BME280;59942;49.304;8.256;2024-01-30T09:36:51;101837.63;;;3.68;100.00
57038;BME280;59942;49.304;8.256;2024-01-30T09:39:18;101843.69;;;3.76;100.00
57038;BME280;59942;49.304;8.256;2024-01-30T09:44:53;101841.25;;;3.90;100.00
57038;BME280;59942;49.304;8.256;2024-01-30T09:47:20;101835.22;;;3.88;100.00
57038;BME280;59942;49.304;8.256;2024-01-30T09:49:47;101837.91;;;3.99;100.00
57038;BME280;59942;49.304;8.256;2024-01-30T09:52:14;101836.31;;;4.15;100.00
57038;BME280;59942;49.304;8.256;2024-01-30T09:54:45;101851.06;;;4.41;100.00
57038;BME280;59942;49.304;8.256;2024-01-30T09:57:11;101850.22;;;4.46;100.00
57038;BME280;59942;49.304;8.256;2024-01-30T09:59:41;101856.22;;;4.50;100.00
57038;BME280;59942;49.304;8.256;2024-01-30T10:02:10;101846.09;;;4.78;100.00
57038;BME280;59942;49.304;8.256;2024-01-30T10:04:37;101853.94;;;5.04;100.00
57038;BME280;59942;49.304;8.256;2024-01-30T10:07:03;101849.66;;;5.00;100.00
57038;BME280;59942;49.304;8.256;2024-01-30T10:09:33;101854.84;;;5.17;100.00
57038;BME280;59942;49.304;8.256;2024-01-30T10:12:01;101860.88;;;5.20;100.00
57038;BME280;59942;49.304;8.256;2024-01-30T10:14:30;101854.84;;;5.15;100.00
57038;BME280;59942;49.304;8.256;2024-01-30T10:17:01;101861.72;;;5.19;100.00
57038;BME280;59942;49.304;8.256;2024-01-30T10:19:45;101848.91;;;5.33;100.00
57038;BME280;59942;49.304;8.256;2024-01-30T10:22:12;101843.78;;;5.35;100.00
57038;BME280;59942;49.304;8.256;2024-01-30T10:24:38;101849.81;;;5.59;100.00
57038;BME280;59942;49.304;8.256;2024-01-30T10:27:05;101842.13;;;5.72;100.00
57038;BME280;59942;49.304;8.256;2024-01-30T10:29:34;101833.56;;;5.81;100.00
57038;BME280;59942;49.304;8.256;2024-01-30T10:32:02;101844.69;;;5.82;100.00
57038;BME280;59942;49.304;8.256;2024-01-30T10:34:31;101837.84;;;5.96;100.00
57038;BME280;59942;49.304;8.256;2024-01-30T10:37:10;101806.06;;;5.86;100.00
57038;BME280;59942;49.304;8.256;2024-01-30T10:39:43;101836.16;;;6.20;100.00
57038;BME280;59942;49.304;8.256;2024-01-30T10:42:15;101835.28;;;6.32;100.00
57038;BME280;59942;49.304;8.256;2024-01-30T10:47:30;101831.84;;;6.25;100.00
57038;BME280;59942;49.304;8.256;2024-01-30T10:50:00;101833.53;;;6.37;100.00
57038;BME280;59942;49.304;8.256;2024-01-30T10:52:29;101834.31;;;6.76;100.00
57038;BME280;59942;49.304;8.256;2024-01-30T10:54:56;101829.09;;;6.91;98.54
57038;BME280;59942;49.304;8.256;2024-01-30T10:57:26;101841.97;;;7.01;97.06
57038;BME280;59942;49.304;8.256;2024-01-30T10:59:55;101839.41;;;6.91;97.10
57038;BME280;59942;49.304;8.256;2024-01-30T11:02:26;101829.97;;;6.89;97.91
57038;BME280;59942;49.304;8.256;2024-01-30T11:04:59;101834.25;;;6.90;97.25
57038;BME280;59942;49.304;8.256;2024-01-30T11:07:28;101834.22;;;7.01;96.11
57038;BME280;59942;49.304;8.256;2024-01-30T11:12:25;101831.66;;;7.01;95.81
57038;BME280;59942;49.304;8.256;2024-01-30T11:20:15;101806.66;;;7.13;96.57
57038;BME280;59942;49.304;8.256;2024-01-30T11:22:45;101824.63;;;7.26;94.94
57038;BME280;59942;49.304;8.256;2024-01-30T11:25:13;101799.81;;;7.09;93.53
57038;BME280;59942;49.304;8.256;2024-01-30T11:27:43;101813.41;;;7.32;93.39
57038;BME280;59942;49.304;8.256;2024-01-30T11:30:10;101808.31;;;7.27;94.66
57038;BME280;59942;49.304;8.256;2024-01-30T11:32:37;101814.31;;;7.27;95.56
57038;BME280;59942;49.304;8.256;2024-01-30T11:35:05;101816.03;;;7.27;94.54
57038;BME280;59942;49.304;8.256;2024-01-30T11:37:36;101776.56;;;7.14;93.05
57038;BME280;59942;49.304;8.256;2024-01-30T11:40:06;101809.09;;;7.40;94.52
57038;BME280;59942;49.304;8.256;2024-01-30T11:42:36;101805.59;;;7.45;93.65
57038;BME280;59942;49.304;8.256;2024-01-30T11:45:06;101809.00;;;7.51;93.18
57038;BME280;59942;49.304;8.256;2024-01-30T11:47:36;101800.38;;;7.55;93.32
57038;BME280;59942;49.304;8.256;2024-01-30T11:50:16;101797.78;;;7.56;93.08
57038;BME280;59942;49.304;8.256;2024-01-30T11:52:45;101795.03;;;7.76;93.22
57038;BME280;59942;49.304;8.256;2024-01-30T11:55:12;101786.47;;;7.74;93.27
57038;BME280;59942;49.304;8.256;2024-01-30T11:57:41;101781.16;;;7.88;91.71
57038;BME280;59942;49.304;8.256;2024-01-30T12:00:18;101775.97;;;7.91;90.93
57038;BME280;59942;49.304;8.256;2024-01-30T12:02:52;101778.50;;;7.99;90.85
57038;BME280;59942;49.304;8.256;2024-01-30T12:05:22;101769.78;;;8.09;91.38
57038;BME280;59942;49.304;8.256;2024-01-30T12:07:49;101731.09;;;8.02;88.87
57038;BME280;59942;49.304;8.256;2024-01-30T12:10:16;101728.50;;;8.06;88.58
57038;BME280;59942;49.304;8.256;2024-01-30T12:12:46;101766.13;;;8.32;89.48
57038;BME280;59942;49.304;8.256;2024-01-30T12:15:14;101770.16;;;8.56;87.14
57038;BME280;59942;49.304;8.256;2024-01-30T12:17:43;101752.94;;;8.54;87.94
57038;BME280;59942;49.304;8.256;2024-01-30T12:20:14;101762.41;;;8.56;87.60
57038;BME280;59942;49.304;8.256;2024-01-30T12:22:44;101755.28;;;8.77;85.96
57038;BME280;59942;49.304;8.256;2024-01-30T12:25:20;101751.03;;;8.71;86.76
57038;BME280;59942;49.304;8.256;2024-01-30T12:27:49;101762.09;;;8.81;84.17
57038;BME280;59942;49.304;8.256;2024-01-30T12:30:19;101725.25;;;8.65;85.38
57038;BME280;59942;49.304;8.256;2024-01-30T12:32:49;101762.78;;;8.94;85.13
57038;BME280;59942;49.304;8.256;2024-01-30T12:35:19;101757.59;;;8.95;82.97
57038;BME280;59942;49.304;8.256;2024-01-30T12:37:48;101758.34;;;9.05;83.64
57038;BME280;59942;49.304;8.256;2024-01-30T12:40:17;101752.19;;;9.12;84.04
57038;BME280;59942;49.304;8.256;2024-01-30T12:42:46;101714.56;;;8.90;83.34
57038;BME280;59942;49.304;8.256;2024-01-30T12:45:15;101740.09;;;9.14;83.21
57038;BME280;59942;49.304;8.256;2024-01-30T12:47:47;101749.53;;;9.17;84.06
57038;BME280;59942;49.304;8.256;2024-01-30T12:50:14;101747.81;;;9.17;85.31
57038;BME280;59942;49.304;8.256;2024-01-30T12:52:44;101736.59;;;9.17;82.18
57038;BME280;59942;49.304;8.256;2024-01-30T12:55:15;101752.78;;;9.30;81.98
57038;BME280;59942;49.304;8.256;2024-01-30T12:57:42;101763.09;;;9.36;81.03
57038;BME280;59942;49.304;8.256;2024-01-30T13:00:09;101725.31;;;9.23;81.48
57038;BME280;59942;49.304;8.256;2024-01-30T13:02:36;101750.13;;;9.34;80.58
57038;BME280;59942;49.304;8.256;2024-01-30T13:05:03;101756.94;;;9.40;81.08
57038;BME280;59942;49.304;8.256;2024-01-30T13:07:31;101755.25;;;9.41;80.82
57038;BME280;59942;49.304;8.256;2024-01-30T13:09:57;101731.31;;;9.26;82.65
57038;BME280;59942;49.304;8.256;2024-01-30T13:12:30;101701.38;;;9.07;81.13